Etusivu
METAR-TAF:

METAR-TAF

Lentoasemat :

Amman, Jordania

Leveyspiiri: 31-59N, Pituuspiiri: 035-59E, korkeus merenpinnasta: 767 m

Tämänhetkinen sää

Tämä raportti tehtiin 24 minuuttia sitten, kello 08.00 UTC
Tuuli 7 kn idästä
Lämpötila 18°C
Kosteus 32%
Ilmanpaine 1026 hPa
Näkyvyys: 6000 m

METAR: OJAM 240800Z 08007KT 6000 NSC 18/01 Q1026 NOSIG

Aika: 11:24 (08:24 UTC)

Sääennuste

Tämä raportti tehtiin 3 tuntia ja 14 minuuttia sitten, kello 05.10 UTC
Ennuste voimassa 24. päivästä klo 06 UTC - 25. päivään klo 12 UTC
Tuuli 10 kn idästä/koillisesta
Näkyvyys: 5000 m
usvaa

TAF: OJAM 240510Z 2406/2512 07010KT 5000 HZ NSC

Säähavainnot ja -ennusteet yli 4000 lentoasemalta (METAR- ja TAF-raportit).

Käytössä olevat sääasemat on merkitty karttaan keltaisilla ja punaisilla pisteillä.

Aseta hiiri pisteen päälle nähdäksesi sääaseman nimen.

Klikkaa sitten nähdäksesi säähavainnot ja -ennusteet.

Kartan vaihtaminen: klikkaa mustalla rastilla varustettuja vihreitä pisteitä, niin voit zoomata sisään; viivalla varustettua vihreää pistettä, niin voit zoomata ulos tai vihreitä nuolia, niin pääset viereisille kartoille.


METAR-TAF: